Terminal Aerodrome Forecast
Issued by NWS Wilmington, OH

Home | Current Version | Previous Version | Text Only | Print | Product List | Glossary On
Versions: 1 2 3 4 5 6 7 8 9 10 11 12 13 14 15 16 17 18 19 20 21 22 23 24 25 26 27 28 29 30 31 32
000
FTUS41 KILN 281400 AAC
TAFCVG
TAF AMD
KCVG 281459Z 2815/2918 33009KT 4SM BR BKN004 OVC010
      TEMPO 2815/2818 1SM BR BKN008
     FM281800 35006KT P6SM BKN022
     FM290900 02005KT P6SM OVC018=

USA.gov is the U.S. government's official web portal to all federal, state and local government web resources and services.